Ship Status Report: callsign 2DBT3

sailwx.info

Track history (hours):
 
Tides and Currents Weather Stations Pressure Air Temp Water Temp Dewpoint Dewpoint Depression Visibility Wind Speed Wind Dir Waves Ship Positions

Callsign 2DBT3 (name unknown)

Last reported at 2017-Nov-11 20:34 UTC. Time now 2017-Nov-20 06:22 UTC.
Position N 27°37' W 015°11'.
Warning: this ship's position is 8 days out of date.

Length 34 m.

Type: Ship. MMSI: 235077570.

Date/timePositionNaut miles runAvg speedWind from/ knotsBaromVisibWave heightAir tempDewpointWater temp
2017-Nov-11 20:34N 27°37' W 015°11'0 8.4
2017-Nov-11 20:30N 27°38' W 015°11'4 8.7
2017-Nov-11 20:00N 27°42' W 015°13'4 8.7
2017-Nov-11 19:29N 27°46' W 015°14'7 8.8
2017-Nov-11 18:40N 27°53' W 015°17'2 9.3
2017-Nov-11 18:29N 27°54' W 015°18'4 9.0
2017-Nov-11 18:00N 27°58' W 015°19'4 7.3
2017-Nov-11 17:30N 28°02' W 015°21'4 8.2
2017-Nov-11 17:00N 28°06' W 015°22'3 6.3
2017-Nov-11 16:28N 28°08' W 015°25'0 0.2
2017-Nov-11 15:50N 28°08' W 015°26'0 0.0
2017-Nov-11 15:20N 28°08' W 015°26'0 0.0
2017-Nov-11 14:47N 28°08' W 015°26'0 0.1
2017-Nov-11 14:20N 28°08' W 015°25'0 0.0
2017-Nov-11 13:50N 28°08' W 015°25'0 0.0
2017-Nov-11 13:23N 28°08' W 015°25'0 0.0
2017-Nov-11 12:50N 28°08' W 015°25'0 0.0
2017-Nov-11 10:35N 28°08' W 015°25'0 0.0
2017-Nov-11 10:11N 28°08' W 015°25'0 0.0
2017-Nov-11 09:56N 28°08' W 015°25'0 0.0
2017-Nov-11 09:14N 28°08' W 015°25'0 0.0
2017-Nov-11 08:56N 28°08' W 015°25'0 0.0
2017-Nov-11 08:23N 28°08' W 015°25'0 0.0
2017-Nov-11 07:59N 28°08' W 015°25'0 0.0
2017-Nov-11 05:41N 28°08' W 015°25'0 0.0
2017-Nov-11 05:26N 28°08' W 015°25'0 0.0
2017-Nov-11 01:47N 28°08' W 015°25'0 0.0
2017-Nov-10 14:44N 28°08' W 015°25'0 0.0
2017-Nov-10 13:20N 28°08' W 015°25'0 0.0
2017-Nov-10 11:20N 28°08' W 015°25'0 0.0
2017-Nov-10 09:17N 28°08' W 015°25'0 0.0
2017-Nov-10 08:50N 28°08' W 015°25'0 0.0
2017-Nov-10 07:20N 28°08' W 015°25'0 0.0
2017-Nov-10 06:56N 28°08' W 015°25'0 0.0
2017-Nov-10 06:26N 28°08' W 015°25'0 0.0
2017-Nov-10 05:56N 28°08' W 015°25'0 0.0
2017-Nov-10 04:26N 28°08' W 015°25'0 0.0
2017-Nov-10 03:44N 28°08' W 015°25'0 0.0
2017-Nov-10 03:26N 28°08' W 015°25'0 0.0
2017-Nov-10 02:56N 28°08' W 015°25'0 0.0
2017-Nov-10 02:26N 28°08' W 015°25'0 0.0
2017-Nov-10 01:56N 28°08' W 015°25'0 0.0
2017-Nov-10 01:29N 28°08' W 015°25'0 0.0
2017-Nov-10 00:59N 28°08' W 015°25'0 0.0
2017-Nov-10 00:29N 28°08' W 015°25'0 0.0
2017-Nov-09 23:47N 28°08' W 015°25'0 0.0
2017-Nov-09 23:29N 28°08' W 015°25'0 0.0
2017-Nov-09 22:02N 28°08' W 015°25'0 0.0
2017-Nov-09 21:32N 28°08' W 015°25'0 0.0
2017-Nov-09 21:20N 28°08' W 015°25'0 0.0
2017-Nov-09 20:38N 28°08' W 015°25'0 0.0
2017-Nov-09 20:20N 28°08' W 015°25'0 0.0
2017-Nov-09 19:53N 28°08' W 015°25'0 0.0
2017-Nov-09 19:23N 28°08' W 015°25'0 0.0
2017-Nov-09 18:50N 28°08' W 015°25'0 0.0
2017-Nov-09 18:23N 28°08' W 015°25'0 0.0
2017-Nov-09 17:56N 28°08' W 015°25'0 0.0
2017-Nov-09 17:26N 28°08' W 015°25'0 0.0
2017-Nov-09 16:56N 28°08' W 015°25'0 0.0
2017-Nov-09 16:26N 28°08' W 015°25'0 0.0
2017-Nov-09 15:56N 28°08' W 015°25'0 0.0
2017-Nov-09 15:26N 28°08' W 015°25'0 0.0
2017-Nov-09 14:56N 28°08' W 015°25'0 0.0
2017-Nov-09 14:29N 28°08' W 015°25'0 0.0
2017-Nov-09 13:53N 28°08' W 015°25'0 0.0
2017-Nov-09 13:29N 28°08' W 015°25'0 0.0
2017-Nov-09 12:44N 28°08' W 015°25'0 0.0
2017-Nov-09 12:29N 28°08' W 015°25'0 0.0
2017-Nov-09 11:56N 28°08' W 015°25'0 0.0
2017-Nov-09 11:26N 28°08' W 015°25'0 0.0
2017-Nov-09 10:47N 28°08' W 015°25'0 0.0
2017-Nov-09 10:17N 28°08' W 015°25'0 0.0
2017-Nov-09 09:59N 28°08' W 015°25'0 0.0
2017-Nov-09 09:29N 28°08' W 015°25'0 0.0
2017-Nov-09 08:50N 28°08' W 015°25'0 0.0
2017-Nov-09 07:20N 28°08' W 015°25'0 0.0
2017-Nov-09 06:47N 28°08' W 015°25'0 0.0
2017-Nov-09 06:20N 28°08' W 015°25'0 0.0
2017-Nov-09 05:53N 28°08' W 015°25'0 0.0
2017-Nov-09 05:20N 28°08' W 015°25'0 0.0
2017-Nov-09 04:53N 28°08' W 015°25'0 0.0
2017-Nov-09 04:20N 28°08' W 015°25'0 0.0
2017-Nov-09 03:56N 28°08' W 015°25'0 0.0
2017-Nov-09 03:23N 28°08' W 015°25'0 0.0
2017-Nov-09 02:08N 28°08' W 015°25'0 0.0
2017-Nov-09 01:56N 28°08' W 015°25'0 0.0
2017-Nov-09 01:26N 28°08' W 015°25'0 0.0
2017-Nov-09 00:59N 28°08' W 015°25'0 0.0
2017-Nov-09 00:26N 28°08' W 015°25'0 0.0
2017-Nov-08 23:44N 28°08' W 015°25'0 0.0
2017-Nov-08 23:29N 28°08' W 015°25'0 0.0
2017-Nov-08 22:59N 28°08' W 015°25'0 0.0
2017-Nov-08 22:29N 28°08' W 015°25'0 0.0
2017-Nov-08 21:56N 28°08' W 015°25'0 0.0
2017-Nov-08 21:26N 28°08' W 015°25'0 0.0
2017-Nov-08 20:44N 28°08' W 015°25'0 0.0
2017-Nov-08 20:14N 28°08' W 015°25'0 0.0
2017-Nov-08 19:44N 28°08' W 015°25'0 0.0
2017-Nov-08 19:29N 28°08' W 015°25'0 0.0
2017-Nov-08 18:50N 28°08' W 015°25'0 0.0
2017-Nov-08 18:20N 28°08' W 015°25'0 0.0
2017-Nov-08 17:50N 28°08' W 015°25'0 0.0
2017-Nov-08 17:17N 28°08' W 015°25'0 0.0
2017-Nov-08 16:50N 28°08' W 015°25'0 0.0
2017-Nov-08 16:20N 28°08' W 015°25'0 0.0
2017-Nov-08 15:50N 28°08' W 015°25'0 0.0
2017-Nov-08 15:23N 28°08' W 015°25'0 0.0
2017-Nov-08 14:53N 28°08' W 015°25'0 0.0
2017-Nov-08 14:23N 28°08' W 015°25'0 0.4
2017-Nov-08 14:00N 28°08' W 015°25'0 0.5
2017-Nov-08 13:26N 28°07' W 015°25'0 0.0
2017-Nov-08 12:56N 28°07' W 015°25'0 0.0
2017-Nov-08 12:26N 28°07' W 015°25'0 0.0
2017-Nov-08 11:59N 28°07' W 015°25'0 0.0
2017-Nov-08 10:44N 28°07' W 015°25'0 0.0
2017-Nov-08 10:29N 28°07' W 015°25'0 0.0
2017-Nov-08 09:59N 28°07' W 015°25'0 0.0
2017-Nov-08 09:26N 28°07' W 015°25'0 0.1
2017-Nov-08 08:59N 28°08' W 015°25'0 0.0
2017-Nov-08 08:29N 28°08' W 015°25'0 0.0
2017-Nov-08 07:47N 28°08' W 015°25'0 0.0
2017-Nov-08 07:17N 28°07' W 015°25'0 0.0
2017-Nov-08 06:50N 28°07' W 015°25'0 0.0
2017-Nov-08 06:29N 28°07' W 015°25'0 0.0
2017-Nov-08 05:59N 28°07' W 015°25'0 0.0
2017-Nov-08 05:20N 28°08' W 015°25'0 0.0
2017-Nov-08 04:50N 28°07' W 015°25'0 0.0
2017-Nov-08 04:23N 28°07' W 015°25'0 0.0
2017-Nov-08 03:50N 28°08' W 015°25'0 0.0
2017-Nov-08 03:23N 28°07' W 015°25'0 0.0
2017-Nov-08 02:53N 28°07' W 015°25'0 0.0
2017-Nov-08 02:23N 28°07' W 015°25'0 0.0
2017-Nov-08 01:50N 28°07' W 015°25'0 0.0
2017-Nov-08 01:20N 28°07' W 015°25'0 0.0
2017-Nov-08 00:56N 28°07' W 015°25'0 0.0
2017-Nov-08 00:20N 28°07' W 015°25'0 0.0
2017-Nov-07 23:53N 28°07' W 015°25'0 0.0
2017-Nov-07 23:26N 28°07' W 015°25'0 0.0
2017-Nov-07 22:56N 28°07' W 015°25'0 0.0
2017-Nov-07 22:29N 28°07' W 015°25'0 0.0
2017-Nov-07 21:59N 28°07' W 015°25'0 0.5
2017-Nov-07 21:30N 28°08' W 015°25'2 3.3
2017-Nov-07 21:00N 28°08' W 015°23'5 9.2
2017-Nov-07 20:30N 28°12' W 015°21'5 9.4
2017-Nov-07 20:00N 28°16' W 015°18'5 9.6
2017-Nov-07 19:30N 28°19' W 015°14'5 9.5
2017-Nov-07 18:59N 28°24' W 015°12'  
2017-Nov-02 09:37N 39°29' E 002°35'1 8.6
2017-Nov-02 09:30N 39°30' E 002°36'4 7.8
2017-Nov-02 09:00N 39°33' E 002°39'1 2.0
2017-Nov-02 08:30N 39°34' E 002°38'0 0.0
2017-Nov-02 08:00N 39°34' E 002°38'0 0.0
2017-Nov-02 07:30N 39°34' E 002°38'0 0.1
2017-Nov-02 06:55N 39°34' E 002°38'0 0.0
2017-Nov-02 06:28N 39°34' E 002°38'0 0.0
2017-Nov-02 05:58N 39°34' E 002°38'0 0.0
2017-Nov-02 05:28N 39°34' E 002°38'0 0.0
2017-Nov-02 04:58N 39°34' E 002°38'0 0.0
2017-Nov-02 04:28N 39°34' E 002°38'0 0.0
2017-Nov-02 03:58N 39°34' E 002°38'0 0.0
2017-Nov-02 03:28N 39°34' E 002°38'0 0.0
2017-Nov-02 02:58N 39°34' E 002°38'0 0.0
2017-Nov-02 02:28N 39°34' E 002°38'0 0.0
2017-Nov-02 01:58N 39°34' E 002°38'0 0.0
2017-Nov-02 01:28N 39°34' E 002°38'0 0.0
2017-Nov-02 00:58N 39°34' E 002°38'0 0.0
2017-Nov-02 00:28N 39°34' E 002°38'0 0.0
2017-Nov-01 23:58N 39°34' E 002°38'0 0.0
2017-Nov-01 23:28N 39°34' E 002°38'0 0.0
2017-Nov-01 22:58N 39°34' E 002°38'0 0.0
2017-Nov-01 22:28N 39°34' E 002°38'0 0.0
2017-Nov-01 21:58N 39°34' E 002°38'0 0.0
2017-Nov-01 21:28N 39°34' E 002°38'0 0.0
2017-Nov-01 20:58N 39°34' E 002°38'  
Track history (hours):
 
Tides and Currents Weather Stations Pressure Air Temp Water Temp Dewpoint Dewpoint Depression Visibility Wind Speed Wind Dir Waves Ship Positions

Callsign 2DBT3 (name unknown)

Last reported at 2017-Nov-11 20:34 UTC. Time now 2017-Nov-20 06:22 UTC.
Position N 27°37' W 015°11'.
Warning: this ship's position is 8 days out of date.

Length 34 m.

Type: Ship. MMSI: 235077570.

Date/timePositionNaut miles runAvg speedWind from/ knotsBaromVisibWave heightAir tempDewpointWater temp
2017-Nov-11 20:34N 27°37' W 015°11'0 8.4
2017-Nov-11 20:30N 27°38' W 015°11'4 8.7
2017-Nov-11 20:00N 27°42' W 015°13'4 8.7
2017-Nov-11 19:29N 27°46' W 015°14'7 8.8
2017-Nov-11 18:40N 27°53' W 015°17'2 9.3
2017-Nov-11 18:29N 27°54' W 015°18'4 9.0
2017-Nov-11 18:00N 27°58' W 015°19'4 7.3
2017-Nov-11 17:30N 28°02' W 015°21'4 8.2
2017-Nov-11 17:00N 28°06' W 015°22'3 6.3
2017-Nov-11 16:28N 28°08' W 015°25'0 0.2
2017-Nov-11 15:50N 28°08' W 015°26'0 0.0
2017-Nov-11 15:20N 28°08' W 015°26'0 0.0
2017-Nov-11 14:47N 28°08' W 015°26'0 0.1
2017-Nov-11 14:20N 28°08' W 015°25'0 0.0
2017-Nov-11 13:50N 28°08' W 015°25'0 0.0
2017-Nov-11 13:23N 28°08' W 015°25'0 0.0
2017-Nov-11 12:50N 28°08' W 015°25'0 0.0
2017-Nov-11 10:35N 28°08' W 015°25'0 0.0
2017-Nov-11 10:11N 28°08' W 015°25'0 0.0
2017-Nov-11 09:56N 28°08' W 015°25'0 0.0
2017-Nov-11 09:14N 28°08' W 015°25'0 0.0
2017-Nov-11 08:56N 28°08' W 015°25'0 0.0
2017-Nov-11 08:23N 28°08' W 015°25'0 0.0
2017-Nov-11 07:59N 28°08' W 015°25'0 0.0
2017-Nov-11 05:41N 28°08' W 015°25'0 0.0
2017-Nov-11 05:26N 28°08' W 015°25'0 0.0
2017-Nov-11 01:47N 28°08' W 015°25'0 0.0
2017-Nov-10 14:44N 28°08' W 015°25'0 0.0
2017-Nov-10 13:20N 28°08' W 015°25'0 0.0
2017-Nov-10 11:20N 28°08' W 015°25'0 0.0
2017-Nov-10 09:17N 28°08' W 015°25'0 0.0
2017-Nov-10 08:50N 28°08' W 015°25'0 0.0
2017-Nov-10 07:20N 28°08' W 015°25'0 0.0
2017-Nov-10 06:56N 28°08' W 015°25'0 0.0
2017-Nov-10 06:26N 28°08' W 015°25'0 0.0
2017-Nov-10 05:56N 28°08' W 015°25'0 0.0
2017-Nov-10 04:26N 28°08' W 015°25'0 0.0
2017-Nov-10 03:44N 28°08' W 015°25'0 0.0
2017-Nov-10 03:26N 28°08' W 015°25'0 0.0
2017-Nov-10 02:56N 28°08' W 015°25'0 0.0
2017-Nov-10 02:26N 28°08' W 015°25'0 0.0
2017-Nov-10 01:56N 28°08' W 015°25'0 0.0
2017-Nov-10 01:29N 28°08' W 015°25'0 0.0
2017-Nov-10 00:59N 28°08' W 015°25'0 0.0
2017-Nov-10 00:29N 28°08' W 015°25'0 0.0
2017-Nov-09 23:47N 28°08' W 015°25'0 0.0
2017-Nov-09 23:29N 28°08' W 015°25'0 0.0
2017-Nov-09 22:02N 28°08' W 015°25'0 0.0
2017-Nov-09 21:32N 28°08' W 015°25'0 0.0
2017-Nov-09 21:20N 28°08' W 015°25'0 0.0
2017-Nov-09 20:38N 28°08' W 015°25'0 0.0
2017-Nov-09 20:20N 28°08' W 015°25'0 0.0
2017-Nov-09 19:53N 28°08' W 015°25'0 0.0
2017-Nov-09 19:23N 28°08' W 015°25'0 0.0
2017-Nov-09 18:50N 28°08' W 015°25'0 0.0
2017-Nov-09 18:23N 28°08' W 015°25'0 0.0
2017-Nov-09 17:56N 28°08' W 015°25'0 0.0
2017-Nov-09 17:26N 28°08' W 015°25'0 0.0
2017-Nov-09 16:56N 28°08' W 015°25'0 0.0
2017-Nov-09 16:26N 28°08' W 015°25'0 0.0
2017-Nov-09 15:56N 28°08' W 015°25'0 0.0
2017-Nov-09 15:26N 28°08' W 015°25'0 0.0
2017-Nov-09 14:56N 28°08' W 015°25'0 0.0
2017-Nov-09 14:29N 28°08' W 015°25'0 0.0
2017-Nov-09 13:53N 28°08' W 015°25'0 0.0
2017-Nov-09 13:29N 28°08' W 015°25'0 0.0
2017-Nov-09 12:44N 28°08' W 015°25'0 0.0
2017-Nov-09 12:29N 28°08' W 015°25'0 0.0
2017-Nov-09 11:56N 28°08' W 015°25'0 0.0
2017-Nov-09 11:26N 28°08' W 015°25'0 0.0
2017-Nov-09 10:47N 28°08' W 015°25'0 0.0
2017-Nov-09 10:17N 28°08' W 015°25'0 0.0
2017-Nov-09 09:59N 28°08' W 015°25'0 0.0
2017-Nov-09 09:29N 28°08' W 015°25'0 0.0
2017-Nov-09 08:50N 28°08' W 015°25'0 0.0
2017-Nov-09 07:20N 28°08' W 015°25'0 0.0
2017-Nov-09 06:47N 28°08' W 015°25'0 0.0
2017-Nov-09 06:20N 28°08' W 015°25'0 0.0
2017-Nov-09 05:53N 28°08' W 015°25'0 0.0
2017-Nov-09 05:20N 28°08' W 015°25'0 0.0
2017-Nov-09 04:53N 28°08' W 015°25'0 0.0
2017-Nov-09 04:20N 28°08' W 015°25'0 0.0
2017-Nov-09 03:56N 28°08' W 015°25'0 0.0
2017-Nov-09 03:23N 28°08' W 015°25'0 0.0
2017-Nov-09 02:08N 28°08' W 015°25'0 0.0
2017-Nov-09 01:56N 28°08' W 015°25'0 0.0
2017-Nov-09 01:26N 28°08' W 015°25'0 0.0
2017-Nov-09 00:59N 28°08' W 015°25'0 0.0
2017-Nov-09 00:26N 28°08' W 015°25'0 0.0
2017-Nov-08 23:44N 28°08' W 015°25'0 0.0
2017-Nov-08 23:29N 28°08' W 015°25'0 0.0
2017-Nov-08 22:59N 28°08' W 015°25'0 0.0
2017-Nov-08 22:29N 28°08' W 015°25'0 0.0
2017-Nov-08 21:56N 28°08' W 015°25'0 0.0
2017-Nov-08 21:26N 28°08' W 015°25'0 0.0
2017-Nov-08 20:44N 28°08' W 015°25'0 0.0
2017-Nov-08 20:14N 28°08' W 015°25'0 0.0
2017-Nov-08 19:44N 28°08' W 015°25'0 0.0
2017-Nov-08 19:29N 28°08' W 015°25'0 0.0
2017-Nov-08 18:50N 28°08' W 015°25'0 0.0
2017-Nov-08 18:20N 28°08' W 015°25'0 0.0
2017-Nov-08 17:50N 28°08' W 015°25'0 0.0
2017-Nov-08 17:17N 28°08' W 015°25'0 0.0
2017-Nov-08 16:50N 28°08' W 015°25'0 0.0
2017-Nov-08 16:20N 28°08' W 015°25'0 0.0
2017-Nov-08 15:50N 28°08' W 015°25'0 0.0
2017-Nov-08 15:23N 28°08' W 015°25'0 0.0
2017-Nov-08 14:53N 28°08' W 015°25'0 0.0
2017-Nov-08 14:23N 28°08' W 015°25'0 0.4
2017-Nov-08 14:00N 28°08' W 015°25'0 0.5
2017-Nov-08 13:26N 28°07' W 015°25'0 0.0
2017-Nov-08 12:56N 28°07' W 015°25'0 0.0
2017-Nov-08 12:26N 28°07' W 015°25'0 0.0
2017-Nov-08 11:59N 28°07' W 015°25'0 0.0
2017-Nov-08 10:44N 28°07' W 015°25'0 0.0
2017-Nov-08 10:29N 28°07' W 015°25'0 0.0
2017-Nov-08 09:59N 28°07' W 015°25'0 0.0
2017-Nov-08 09:26N 28°07' W 015°25'0 0.1
2017-Nov-08 08:59N 28°08' W 015°25'0 0.0
2017-Nov-08 08:29N 28°08' W 015°25'0 0.0
2017-Nov-08 07:47N 28°08' W 015°25'0 0.0
2017-Nov-08 07:17N 28°07' W 015°25'0 0.0
2017-Nov-08 06:50N 28°07' W 015°25'0 0.0
2017-Nov-08 06:29N 28°07' W 015°25'0 0.0
2017-Nov-08 05:59N 28°07' W 015°25'0 0.0
2017-Nov-08 05:20N 28°08' W 015°25'0 0.0
2017-Nov-08 04:50N 28°07' W 015°25'0 0.0
2017-Nov-08 04:23N 28°07' W 015°25'0 0.0
2017-Nov-08 03:50N 28°08' W 015°25'0 0.0
2017-Nov-08 03:23N 28°07' W 015°25'0 0.0
2017-Nov-08 02:53N 28°07' W 015°25'0 0.0
2017-Nov-08 02:23N 28°07' W 015°25'0 0.0
2017-Nov-08 01:50N 28°07' W 015°25'0 0.0
2017-Nov-08 01:20N 28°07' W 015°25'0 0.0
2017-Nov-08 00:56N 28°07' W 015°25'0 0.0
2017-Nov-08 00:20N 28°07' W 015°25'0 0.0
2017-Nov-07 23:53N 28°07' W 015°25'0 0.0
2017-Nov-07 23:26N 28°07' W 015°25'0 0.0
2017-Nov-07 22:56N 28°07' W 015°25'0 0.0
2017-Nov-07 22:29N 28°07' W 015°25'0 0.0
2017-Nov-07 21:59N 28°07' W 015°25'0 0.5
2017-Nov-07 21:30N 28°08' W 015°25'2 3.3
2017-Nov-07 21:00N 28°08' W 015°23'5 9.2
2017-Nov-07 20:30N 28°12' W 015°21'5 9.4
2017-Nov-07 20:00N 28°16' W 015°18'5 9.6
2017-Nov-07 19:30N 28°19' W 015°14'5 9.5
2017-Nov-07 18:59N 28°24' W 015°12'  
2017-Nov-02 09:37N 39°29' E 002°35'1 8.6
2017-Nov-02 09:30N 39°30' E 002°36'4 7.8
2017-Nov-02 09:00N 39°33' E 002°39'1 2.0
2017-Nov-02 08:30N 39°34' E 002°38'0 0.0
2017-Nov-02 08:00N 39°34' E 002°38'0 0.0
2017-Nov-02 07:30N 39°34' E 002°38'0 0.1
2017-Nov-02 06:55N 39°34' E 002°38'0 0.0
2017-Nov-02 06:28N 39°34' E 002°38'0 0.0
2017-Nov-02 05:58N 39°34' E 002°38'0 0.0
2017-Nov-02 05:28N 39°34' E 002°38'0 0.0
2017-Nov-02 04:58N 39°34' E 002°38'0 0.0
2017-Nov-02 04:28N 39°34' E 002°38'0 0.0
2017-Nov-02 03:58N 39°34' E 002°38'0 0.0
2017-Nov-02 03:28N 39°34' E 002°38'0 0.0
2017-Nov-02 02:58N 39°34' E 002°38'0 0.0
2017-Nov-02 02:28N 39°34' E 002°38'0 0.0
2017-Nov-02 01:58N 39°34' E 002°38'0 0.0
2017-Nov-02 01:28N 39°34' E 002°38'0 0.0
2017-Nov-02 00:58N 39°34' E 002°38'0 0.0
2017-Nov-02 00:28N 39°34' E 002°38'0 0.0
2017-Nov-01 23:58N 39°34' E 002°38'0 0.0
2017-Nov-01 23:28N 39°34' E 002°38'0 0.0
2017-Nov-01 22:58N 39°34' E 002°38'0 0.0
2017-Nov-01 22:28N 39°34' E 002°38'0 0.0
2017-Nov-01 21:58N 39°34' E 002°38'0 0.0
2017-Nov-01 21:28N 39°34' E 002°38'0 0.0
2017-Nov-01 20:58N 39°34' E 002°38'  

Dump ship's entire track history